sensor_id;sensor_type;location;lat;lon;timestamp;P1;durP1;ratioP1;P2;durP2;ratioP2
5833;SDS011;2943;48.012;10.968;2023-02-28T00:00:36;9.83;;;5.40;;
5833;SDS011;2943;48.012;10.968;2023-02-28T00:03:05;7.97;;;4.97;;
5833;SDS011;2943;48.012;10.968;2023-02-28T00:05:32;6.90;;;5.00;;
5833;SDS011;2943;48.012;10.968;2023-02-28T00:07:59;8.43;;;5.50;;
5833;SDS011;2943;48.012;10.968;2023-02-28T00:10:27;6.33;;;5.30;;
5833;SDS011;2943;48.012;10.968;2023-02-28T00:12:55;7.23;;;5.40;;
5833;SDS011;2943;48.012;10.968;2023-02-28T00:15:25;6.73;;;5.57;;
5833;SDS011;2943;48.012;10.968;2023-02-28T00:17:52;6.10;;;5.13;;
5833;SDS011;2943;48.012;10.968;2023-02-28T00:20:20;8.40;;;6.20;;
5833;SDS011;2943;48.012;10.968;2023-02-28T00:22:49;7.43;;;5.93;;
5833;SDS011;2943;48.012;10.968;2023-02-28T00:25:18;7.37;;;5.63;;
5833;SDS011;2943;48.012;10.968;2023-02-28T00:27:46;7.40;;;5.60;;
5833;SDS011;2943;48.012;10.968;2023-02-28T00:30:14;6.63;;;5.40;;
5833;SDS011;2943;48.012;10.968;2023-02-28T00:32:43;8.13;;;5.80;;
5833;SDS011;2943;48.012;10.968;2023-02-28T00:35:10;9.73;;;5.80;;
5833;SDS011;2943;48.012;10.968;2023-02-28T00:37:39;7.00;;;5.10;;
5833;SDS011;2943;48.012;10.968;2023-02-28T00:40:06;6.00;;;5.30;;
5833;SDS011;2943;48.012;10.968;2023-02-28T00:42:36;7.40;;;5.47;;
5833;SDS011;2943;48.012;10.968;2023-02-28T00:45:03;5.50;;;5.00;;
5833;SDS011;2943;48.012;10.968;2023-02-28T00:47:31;5.73;;;5.10;;
5833;SDS011;2943;48.012;10.968;2023-02-28T00:49:58;7.73;;;5.83;;
5833;SDS011;2943;48.012;10.968;2023-02-28T00:52:25;6.87;;;5.30;;
5833;SDS011;2943;48.012;10.968;2023-02-28T00:54:53;5.77;;;5.00;;
5833;SDS011;2943;48.012;10.968;2023-02-28T00:57:20;8.20;;;5.93;;
5833;SDS011;2943;48.012;10.968;2023-02-28T00:59:47;5.53;;;4.93;;
5833;SDS011;2943;48.012;10.968;2023-02-28T01:02:14;7.37;;;5.47;;
5833;SDS011;2943;48.012;10.968;2023-02-28T01:04:41;6.40;;;5.70;;
5833;SDS011;2943;48.012;10.968;2023-02-28T01:07:08;8.17;;;6.13;;
5833;SDS011;2943;48.012;10.968;2023-02-28T01:09:34;6.53;;;4.60;;
5833;SDS011;2943;48.012;10.968;2023-02-28T01:12:03;6.90;;;5.67;;
5833;SDS011;2943;48.012;10.968;2023-02-28T01:14:30;11.10;;;5.60;;
5833;SDS011;2943;48.012;10.968;2023-02-28T01:16:57;7.67;;;5.77;;
5833;SDS011;2943;48.012;10.968;2023-02-28T01:19:23;7.50;;;5.43;;
5833;SDS011;2943;48.012;10.968;2023-02-28T01:21:50;7.40;;;5.50;;
5833;SDS011;2943;48.012;10.968;2023-02-28T01:24:17;6.67;;;5.87;;
5833;SDS011;2943;48.012;10.968;2023-02-28T01:26:44;12.80;;;6.20;;
5833;SDS011;2943;48.012;10.968;2023-02-28T01:29:12;8.43;;;5.50;;
5833;SDS011;2943;48.012;10.968;2023-02-28T01:31:39;8.30;;;5.17;;
5833;SDS011;2943;48.012;10.968;2023-02-28T01:34:06;6.10;;;5.20;;
5833;SDS011;2943;48.012;10.968;2023-02-28T01:36:32;7.13;;;5.87;;
5833;SDS011;2943;48.012;10.968;2023-02-28T01:38:59;8.17;;;6.10;;
5833;SDS011;2943;48.012;10.968;2023-02-28T01:41:27;8.33;;;5.80;;
5833;SDS011;2943;48.012;10.968;2023-02-28T01:43:57;7.90;;;5.63;;
5833;SDS011;2943;48.012;10.968;2023-02-28T01:46:29;8.77;;;5.40;;
5833;SDS011;2943;48.012;10.968;2023-02-28T01:48:58;9.00;;;6.07;;
5833;SDS011;2943;48.012;10.968;2023-02-28T01:51:30;7.37;;;5.53;;
5833;SDS011;2943;48.012;10.968;2023-02-28T01:54:02;7.07;;;6.17;;
5833;SDS011;2943;48.012;10.968;2023-02-28T01:56:38;6.80;;;5.60;;
5833;SDS011;2943;48.012;10.968;2023-02-28T01:59:08;7.80;;;6.63;;
5833;SDS011;2943;48.012;10.968;2023-02-28T02:01:40;7.67;;;5.90;;
5833;SDS011;2943;48.012;10.968;2023-02-28T02:04:06;9.30;;;5.50;;
5833;SDS011;2943;48.012;10.968;2023-02-28T02:06:34;6.43;;;5.77;;
5833;SDS011;2943;48.012;10.968;2023-02-28T02:09:04;7.90;;;6.03;;
5833;SDS011;2943;48.012;10.968;2023-02-28T02:11:31;12.30;;;6.20;;
5833;SDS011;2943;48.012;10.968;2023-02-28T02:14:02;7.03;;;5.73;;
5833;SDS011;2943;48.012;10.968;2023-02-28T02:16:55;14.70;;;7.10;;
5833;SDS011;2943;48.012;10.968;2023-02-28T02:22:37;11.30;;;6.20;;
5833;SDS011;2943;48.012;10.968;2023-02-28T02:25:26;6.83;;;6.13;;
5833;SDS011;2943;48.012;10.968;2023-02-28T02:28:03;7.10;;;5.90;;
5833;SDS011;2943;48.012;10.968;2023-02-28T02:31:00;7.20;;;6.30;;
5833;SDS011;2943;48.012;10.968;2023-02-28T02:33:47;14.30;;;6.83;;
5833;SDS011;2943;48.012;10.968;2023-02-28T02:36:39;9.53;;;6.80;;
5833;SDS011;2943;48.012;10.968;2023-02-28T02:39:14;8.80;;;6.20;;
5833;SDS011;2943;48.012;10.968;2023-02-28T02:41:49;6.47;;;5.30;;
5833;SDS011;2943;48.012;10.968;2023-02-28T02:44:19;8.50;;;6.80;;
5833;SDS011;2943;48.012;10.968;2023-02-28T02:46:50;8.90;;;6.43;;
5833;SDS011;2943;48.012;10.968;2023-02-28T02:49:19;8.57;;;7.10;;
5833;SDS011;2943;48.012;10.968;2023-02-28T02:51:51;9.10;;;7.00;;
5833;SDS011;2943;48.012;10.968;2023-02-28T02:54:20;8.83;;;6.63;;
5833;SDS011;2943;48.012;10.968;2023-02-28T02:56:53;7.00;;;5.83;;
5833;SDS011;2943;48.012;10.968;2023-02-28T02:59:23;16.43;;;7.87;;
5833;SDS011;2943;48.012;10.968;2023-02-28T03:01:52;10.50;;;6.90;;
5833;SDS011;2943;48.012;10.968;2023-02-28T03:04:21;8.60;;;6.60;;
5833;SDS011;2943;48.012;10.968;2023-02-28T03:06:52;9.40;;;7.40;;
5833;SDS011;2943;48.012;10.968;2023-02-28T03:09:20;8.63;;;7.37;;
5833;SDS011;2943;48.012;10.968;2023-02-28T03:11:47;7.13;;;5.80;;
5833;SDS011;2943;48.012;10.968;2023-02-28T03:17:12;9.00;;;7.40;;
5833;SDS011;2943;48.012;10.968;2023-02-28T03:19:55;10.40;;;7.33;;
5833;SDS011;2943;48.012;10.968;2023-02-28T03:22:38;13.33;;;8.03;;
5833;SDS011;2943;48.012;10.968;2023-02-28T03:25:19;10.30;;;6.80;;
5833;SDS011;2943;48.012;10.968;2023-02-28T03:27:54;8.93;;;7.13;;
5833;SDS011;2943;48.012;10.968;2023-02-28T03:30:29;9.17;;;7.00;;
5833;SDS011;2943;48.012;10.968;2023-02-28T03:33:03;7.97;;;6.20;;
5833;SDS011;2943;48.012;10.968;2023-02-28T03:35:34;11.07;;;6.93;;
5833;SDS011;2943;48.012;10.968;2023-02-28T03:38:07;16.40;;;6.57;;
5833;SDS011;2943;48.012;10.968;2023-02-28T03:40:39;10.33;;;6.70;;
5833;SDS011;2943;48.012;10.968;2023-02-28T03:43:09;10.27;;;7.03;;
5833;SDS011;2943;48.012;10.968;2023-02-28T03:45:40;9.10;;;7.03;;
5833;SDS011;2943;48.012;10.968;2023-02-28T03:48:09;8.67;;;6.10;;
5833;SDS011;2943;48.012;10.968;2023-02-28T03:50:40;11.40;;;7.13;;
5833;SDS011;2943;48.012;10.968;2023-02-28T03:53:10;8.10;;;6.50;;
5833;SDS011;2943;48.012;10.968;2023-02-28T03:55:40;10.23;;;6.93;;
5833;SDS011;2943;48.012;10.968;2023-02-28T03:58:12;9.80;;;7.40;;
5833;SDS011;2943;48.012;10.968;2023-02-28T04:00:44;12.07;;;6.87;;
5833;SDS011;2943;48.012;10.968;2023-02-28T04:03:14;7.63;;;6.40;;
5833;SDS011;2943;48.012;10.968;2023-02-28T04:05:46;10.87;;;7.57;;
5833;SDS011;2943;48.012;10.968;2023-02-28T04:08:18;11.53;;;6.50;;
5833;SDS011;2943;48.012;10.968;2023-02-28T04:10:47;9.70;;;7.10;;
5833;SDS011;2943;48.012;10.968;2023-02-28T04:13:17;10.13;;;6.57;;
5833;SDS011;2943;48.012;10.968;2023-02-28T04:15:44;11.37;;;7.20;;
5833;SDS011;2943;48.012;10.968;2023-02-28T04:18:11;9.57;;;6.30;;
5833;SDS011;2943;48.012;10.968;2023-02-28T04:20:37;8.90;;;7.60;;
5833;SDS011;2943;48.012;10.968;2023-02-28T04:23:04;13.67;;;7.30;;
5833;SDS011;2943;48.012;10.968;2023-02-28T04:25:32;11.23;;;8.20;;
5833;SDS011;2943;48.012;10.968;2023-02-28T04:27:59;14.37;;;8.17;;
5833;SDS011;2943;48.012;10.968;2023-02-28T04:30:26;9.77;;;7.60;;
5833;SDS011;2943;48.012;10.968;2023-02-28T04:32:54;11.20;;;7.20;;
5833;SDS011;2943;48.012;10.968;2023-02-28T04:35:21;12.93;;;8.93;;
5833;SDS011;2943;48.012;10.968;2023-02-28T04:37:48;12.70;;;8.47;;
5833;SDS011;2943;48.012;10.968;2023-02-28T04:40:15;11.57;;;8.00;;
5833;SDS011;2943;48.012;10.968;2023-02-28T04:42:43;10.50;;;7.70;;
5833;SDS011;2943;48.012;10.968;2023-02-28T04:45:10;15.47;;;9.17;;
5833;SDS011;2943;48.012;10.968;2023-02-28T04:47:37;11.17;;;8.10;;
5833;SDS011;2943;48.012;10.968;2023-02-28T04:50:04;12.30;;;8.20;;
5833;SDS011;2943;48.012;10.968;2023-02-28T04:52:31;13.30;;;9.00;;
5833;SDS011;2943;48.012;10.968;2023-02-28T04:54:58;14.80;;;8.60;;
5833;SDS011;2943;48.012;10.968;2023-02-28T04:57:24;11.43;;;8.30;;
5833;SDS011;2943;48.012;10.968;2023-02-28T04:59:53;17.50;;;7.97;;
5833;SDS011;2943;48.012;10.968;2023-02-28T05:02:19;17.47;;;8.53;;
5833;SDS011;2943;48.012;10.968;2023-02-28T05:04:46;12.30;;;8.50;;
5833;SDS011;2943;48.012;10.968;2023-02-28T05:07:13;13.90;;;9.67;;
5833;SDS011;2943;48.012;10.968;2023-02-28T05:09:40;13.13;;;9.00;;
5833;SDS011;2943;48.012;10.968;2023-02-28T05:12:07;16.87;;;9.90;;
5833;SDS011;2943;48.012;10.968;2023-02-28T05:14:35;15.87;;;10.00;;
5833;SDS011;2943;48.012;10.968;2023-02-28T05:17:03;17.03;;;9.80;;
5833;SDS011;2943;48.012;10.968;2023-02-28T05:19:30;21.00;;;12.00;;
5833;SDS011;2943;48.012;10.968;2023-02-28T05:21:57;16.27;;;11.20;;
5833;SDS011;2943;48.012;10.968;2023-02-28T05:24:23;21.60;;;11.30;;
5833;SDS011;2943;48.012;10.968;2023-02-28T05:26:52;16.10;;;10.33;;
5833;SDS011;2943;48.012;10.968;2023-02-28T05:29:20;24.30;;;12.30;;
5833;SDS011;2943;48.012;10.968;2023-02-28T05:31:47;38.63;;;19.93;;
5833;SDS011;2943;48.012;10.968;2023-02-28T05:34:15;23.10;;;13.50;;
5833;SDS011;2943;48.012;10.968;2023-02-28T05:36:42;24.50;;;14.40;;
5833;SDS011;2943;48.012;10.968;2023-02-28T05:39:09;34.77;;;19.00;;
5833;SDS011;2943;48.012;10.968;2023-02-28T05:41:38;48.33;;;26.00;;
5833;SDS011;2943;48.012;10.968;2023-02-28T05:44:06;36.33;;;21.30;;
5833;SDS011;2943;48.012;10.968;2023-02-28T05:46:32;31.13;;;17.70;;
5833;SDS011;2943;48.012;10.968;2023-02-28T05:48:59;39.50;;;22.50;;
5833;SDS011;2943;48.012;10.968;2023-02-28T05:51:27;37.50;;;21.57;;
5833;SDS011;2943;48.012;10.968;2023-02-28T05:53:54;34.73;;;18.97;;
5833;SDS011;2943;48.012;10.968;2023-02-28T05:56:25;29.03;;;17.10;;
5833;SDS011;2943;48.012;10.968;2023-02-28T05:58:52;24.20;;;15.70;;
5833;SDS011;2943;48.012;10.968;2023-02-28T06:01:20;28.60;;;16.07;;
5833;SDS011;2943;48.012;10.968;2023-02-28T06:03:49;25.67;;;15.73;;
5833;SDS011;2943;48.012;10.968;2023-02-28T06:06:16;26.13;;;15.07;;
5833;SDS011;2943;48.012;10.968;2023-02-28T06:08:44;26.13;;;15.23;;
5833;SDS011;2943;48.012;10.968;2023-02-28T06:11:11;30.87;;;17.03;;
5833;SDS011;2943;48.012;10.968;2023-02-28T06:13:38;27.77;;;17.23;;
5833;SDS011;2943;48.012;10.968;2023-02-28T06:16:05;30.73;;;18.23;;
5833;SDS011;2943;48.012;10.968;2023-02-28T06:18:32;27.60;;;17.40;;
5833;SDS011;2943;48.012;10.968;2023-02-28T06:20:59;27.30;;;17.13;;
5833;SDS011;2943;48.012;10.968;2023-02-28T06:23:26;25.70;;;16.23;;
5833;SDS011;2943;48.012;10.968;2023-02-28T06:25:54;32.07;;;17.23;;
5833;SDS011;2943;48.012;10.968;2023-02-28T06:28:23;27.83;;;17.30;;
5833;SDS011;2943;48.012;10.968;2023-02-28T06:30:50;32.73;;;17.50;;
5833;SDS011;2943;48.012;10.968;2023-02-28T06:33:17;37.10;;;15.83;;
5833;SDS011;2943;48.012;10.968;2023-02-28T06:35:44;28.23;;;16.40;;
5833;SDS011;2943;48.012;10.968;2023-02-28T06:38:12;34.10;;;17.73;;
5833;SDS011;2943;48.012;10.968;2023-02-28T06:40:39;38.83;;;17.00;;
5833;SDS011;2943;48.012;10.968;2023-02-28T06:43:07;30.47;;;18.00;;
5833;SDS011;2943;48.012;10.968;2023-02-28T06:45:36;30.33;;;17.17;;
5833;SDS011;2943;48.012;10.968;2023-02-28T06:48:03;30.97;;;16.90;;
5833;SDS011;2943;48.012;10.968;2023-02-28T06:50:30;29.33;;;17.90;;
5833;SDS011;2943;48.012;10.968;2023-02-28T06:52:57;30.00;;;17.90;;
5833;SDS011;2943;48.012;10.968;2023-02-28T06:55:24;31.20;;;16.80;;
5833;SDS011;2943;48.012;10.968;2023-02-28T06:57:51;29.60;;;19.17;;
5833;SDS011;2943;48.012;10.968;2023-02-28T07:00:19;28.60;;;17.10;;
5833;SDS011;2943;48.012;10.968;2023-02-28T07:02:46;27.70;;;15.77;;
5833;SDS011;2943;48.012;10.968;2023-02-28T07:05:13;27.20;;;17.03;;
5833;SDS011;2943;48.012;10.968;2023-02-28T07:07:40;26.97;;;16.80;;
5833;SDS011;2943;48.012;10.968;2023-02-28T07:10:09;29.60;;;16.70;;
5833;SDS011;2943;48.012;10.968;2023-02-28T07:12:38;27.83;;;17.80;;
5833;SDS011;2943;48.012;10.968;2023-02-28T07:15:05;30.73;;;18.27;;
5833;SDS011;2943;48.012;10.968;2023-02-28T07:17:34;31.70;;;17.57;;
5833;SDS011;2943;48.012;10.968;2023-02-28T07:20:01;28.80;;;18.03;;
5833;SDS011;2943;48.012;10.968;2023-02-28T07:22:29;33.50;;;17.90;;
5833;SDS011;2943;48.012;10.968;2023-02-28T07:24:56;29.90;;;17.00;;
5833;SDS011;2943;48.012;10.968;2023-02-28T07:27:22;34.63;;;17.40;;
5833;SDS011;2943;48.012;10.968;2023-02-28T07:29:50;30.17;;;16.67;;
5833;SDS011;2943;48.012;10.968;2023-02-28T07:32:17;27.63;;;17.70;;
5833;SDS011;2943;48.012;10.968;2023-02-28T07:34:45;33.17;;;17.00;;
5833;SDS011;2943;48.012;10.968;2023-02-28T07:37:13;31.57;;;16.87;;
5833;SDS011;2943;48.012;10.968;2023-02-28T07:39:40;31.30;;;17.23;;
5833;SDS011;2943;48.012;10.968;2023-02-28T07:42:08;28.10;;;18.13;;
5833;SDS011;2943;48.012;10.968;2023-02-28T07:44:36;35.93;;;21.37;;
5833;SDS011;2943;48.012;10.968;2023-02-28T07:47:05;33.20;;;18.13;;
5833;SDS011;2943;48.012;10.968;2023-02-28T07:49:33;29.87;;;17.40;;
5833;SDS011;2943;48.012;10.968;2023-02-28T07:52:02;29.30;;;17.37;;
5833;SDS011;2943;48.012;10.968;2023-02-28T07:54:29;26.50;;;16.53;;
5833;SDS011;2943;48.012;10.968;2023-02-28T07:56:56;28.97;;;17.00;;
5833;SDS011;2943;48.012;10.968;2023-02-28T07:59:23;27.33;;;16.87;;
5833;SDS011;2943;48.012;10.968;2023-02-28T08:01:50;29.00;;;17.40;;
5833;SDS011;2943;48.012;10.968;2023-02-28T08:04:17;28.87;;;17.83;;
5833;SDS011;2943;48.012;10.968;2023-02-28T08:06:44;29.73;;;17.67;;
5833;SDS011;2943;48.012;10.968;2023-02-28T08:09:12;28.30;;;17.60;;
5833;SDS011;2943;48.012;10.968;2023-02-28T08:11:39;29.97;;;18.07;;
5833;SDS011;2943;48.012;10.968;2023-02-28T08:14:06;27.07;;;17.37;;
5833;SDS011;2943;48.012;10.968;2023-02-28T08:16:32;28.67;;;17.27;;
5833;SDS011;2943;48.012;10.968;2023-02-28T08:18:59;27.53;;;18.30;;
5833;SDS011;2943;48.012;10.968;2023-02-28T08:21:26;31.73;;;18.70;;
5833;SDS011;2943;48.012;10.968;2023-02-28T08:23:53;30.37;;;17.13;;
5833;SDS011;2943;48.012;10.968;2023-02-28T08:26:23;30.70;;;17.77;;
5833;SDS011;2943;48.012;10.968;2023-02-28T08:28:50;29.10;;;17.03;;
5833;SDS011;2943;48.012;10.968;2023-02-28T08:31:17;31.50;;;18.97;;
5833;SDS011;2943;48.012;10.968;2023-02-28T08:33:45;30.20;;;18.13;;
5833;SDS011;2943;48.012;10.968;2023-02-28T08:36:13;25.60;;;16.13;;
5833;SDS011;2943;48.012;10.968;2023-02-28T08:38:40;32.00;;;17.77;;
5833;SDS011;2943;48.012;10.968;2023-02-28T08:41:08;28.77;;;17.57;;
5833;SDS011;2943;48.012;10.968;2023-02-28T08:43:38;24.40;;;16.87;;
5833;SDS011;2943;48.012;10.968;2023-02-28T08:46:05;26.73;;;16.33;;
5833;SDS011;2943;48.012;10.968;2023-02-28T08:48:34;32.63;;;17.30;;
5833;SDS011;2943;48.012;10.968;2023-02-28T08:51:04;30.27;;;15.90;;
5833;SDS011;2943;48.012;10.968;2023-02-28T08:53:32;27.37;;;15.90;;
5833;SDS011;2943;48.012;10.968;2023-02-28T08:55:59;28.30;;;16.20;;
5833;SDS011;2943;48.012;10.968;2023-02-28T08:58:27;33.63;;;16.80;;
5833;SDS011;2943;48.012;10.968;2023-02-28T09:00:56;24.53;;;16.43;;
5833;SDS011;2943;48.012;10.968;2023-02-28T09:03:23;27.13;;;16.07;;
5833;SDS011;2943;48.012;10.968;2023-02-28T09:05:52;29.40;;;16.40;;
5833;SDS011;2943;48.012;10.968;2023-02-28T09:08:20;28.23;;;17.47;;
5833;SDS011;2943;48.012;10.968;2023-02-28T09:10:47;31.70;;;19.10;;
5833;SDS011;2943;48.012;10.968;2023-02-28T09:13:14;27.70;;;16.47;;
5833;SDS011;2943;48.012;10.968;2023-02-28T09:15:40;26.00;;;15.97;;
5833;SDS011;2943;48.012;10.968;2023-02-28T09:18:09;24.07;;;16.40;;
5833;SDS011;2943;48.012;10.968;2023-02-28T09:20:37;27.60;;;17.90;;
5833;SDS011;2943;48.012;10.968;2023-02-28T09:23:04;28.13;;;15.63;;
5833;SDS011;2943;48.012;10.968;2023-02-28T09:25:31;29.07;;;17.13;;
5833;SDS011;2943;48.012;10.968;2023-02-28T09:27:58;26.50;;;17.17;;
5833;SDS011;2943;48.012;10.968;2023-02-28T09:30:24;25.80;;;17.13;;
5833;SDS011;2943;48.012;10.968;2023-02-28T09:32:51;25.27;;;16.37;;
5833;SDS011;2943;48.012;10.968;2023-02-28T09:35:20;25.07;;;15.83;;
5833;SDS011;2943;48.012;10.968;2023-02-28T09:37:48;26.60;;;16.57;;
5833;SDS011;2943;48.012;10.968;2023-02-28T09:40:17;24.23;;;16.20;;
5833;SDS011;2943;48.012;10.968;2023-02-28T09:42:45;27.53;;;17.47;;
5833;SDS011;2943;48.012;10.968;2023-02-28T09:45:16;28.00;;;18.00;;
5833;SDS011;2943;48.012;10.968;2023-02-28T09:47:50;27.20;;;18.03;;
5833;SDS011;2943;48.012;10.968;2023-02-28T09:50:26;27.37;;;17.50;;
5833;SDS011;2943;48.012;10.968;2023-02-28T09:52:58;27.50;;;17.27;;
5833;SDS011;2943;48.012;10.968;2023-02-28T09:55:28;26.57;;;17.03;;
5833;SDS011;2943;48.012;10.968;2023-02-28T09:57:58;25.50;;;17.17;;
5833;SDS011;2943;48.012;10.968;2023-02-28T10:00:29;25.27;;;17.00;;
5833;SDS011;2943;48.012;10.968;2023-02-28T10:03:04;25.43;;;15.87;;
5833;SDS011;2943;48.012;10.968;2023-02-28T10:05:38;24.97;;;16.47;;
5833;SDS011;2943;48.012;10.968;2023-02-28T10:08:12;27.73;;;16.57;;
5833;SDS011;2943;48.012;10.968;2023-02-28T10:10:42;28.63;;;18.27;;
5833;SDS011;2943;48.012;10.968;2023-02-28T10:13:20;28.53;;;18.23;;
5833;SDS011;2943;48.012;10.968;2023-02-28T10:15:54;28.90;;;17.63;;
5833;SDS011;2943;48.012;10.968;2023-02-28T10:18:24;26.53;;;17.40;;
5833;SDS011;2943;48.012;10.968;2023-02-28T10:20:58;29.10;;;16.93;;
5833;SDS011;2943;48.012;10.968;2023-02-28T10:23:26;30.23;;;19.17;;
5833;SDS011;2943;48.012;10.968;2023-02-28T10:25:58;27.40;;;18.37;;
5833;SDS011;2943;48.012;10.968;2023-02-28T10:28:27;26.50;;;17.37;;
5833;SDS011;2943;48.012;10.968;2023-02-28T10:30:56;26.00;;;18.83;;
5833;SDS011;2943;48.012;10.968;2023-02-28T10:33:25;34.63;;;18.60;;
5833;SDS011;2943;48.012;10.968;2023-02-28T10:35:55;28.17;;;18.03;;
5833;SDS011;2943;48.012;10.968;2023-02-28T10:38:23;26.23;;;17.83;;
5833;SDS011;2943;48.012;10.968;2023-02-28T10:40:51;27.63;;;16.83;;
5833;SDS011;2943;48.012;10.968;2023-02-28T10:43:28;30.10;;;17.90;;
5833;SDS011;2943;48.012;10.968;2023-02-28T10:45:56;27.63;;;17.20;;
5833;SDS011;2943;48.012;10.968;2023-02-28T10:48:27;34.70;;;17.50;;
5833;SDS011;2943;48.012;10.968;2023-02-28T10:50:57;25.70;;;17.50;;
5833;SDS011;2943;48.012;10.968;2023-02-28T10:53:30;31.53;;;19.07;;
5833;SDS011;2943;48.012;10.968;2023-02-28T10:56:00;32.13;;;18.23;;
5833;SDS011;2943;48.012;10.968;2023-02-28T10:58:29;29.90;;;19.17;;
5833;SDS011;2943;48.012;10.968;2023-02-28T11:00:58;31.37;;;19.80;;
5833;SDS011;2943;48.012;10.968;2023-02-28T11:03:29;29.67;;;19.53;;
5833;SDS011;2943;48.012;10.968;2023-02-28T11:05:58;28.00;;;18.50;;
5833;SDS011;2943;48.012;10.968;2023-02-28T11:08:31;28.13;;;17.23;;
5833;SDS011;2943;48.012;10.968;2023-02-28T11:11:01;30.10;;;17.40;;
5833;SDS011;2943;48.012;10.968;2023-02-28T11:13:32;31.20;;;17.93;;
5833;SDS011;2943;48.012;10.968;2023-02-28T11:16:03;23.70;;;16.57;;
5833;SDS011;2943;48.012;10.968;2023-02-28T11:18:33;29.77;;;18.37;;
5833;SDS011;2943;48.012;10.968;2023-02-28T11:21:06;30.07;;;19.50;;
5833;SDS011;2943;48.012;10.968;2023-02-28T11:23:37;30.97;;;18.90;;
5833;SDS011;2943;48.012;10.968;2023-02-28T11:26:07;33.00;;;19.97;;
5833;SDS011;2943;48.012;10.968;2023-02-28T11:28:36;27.53;;;17.83;;
5833;SDS011;2943;48.012;10.968;2023-02-28T11:31:06;27.23;;;18.47;;
5833;SDS011;2943;48.012;10.968;2023-02-28T11:33:45;26.93;;;18.13;;
5833;SDS011;2943;48.012;10.968;2023-02-28T11:36:16;29.13;;;19.33;;
5833;SDS011;2943;48.012;10.968;2023-02-28T11:38:46;27.47;;;18.77;;
5833;SDS011;2943;48.012;10.968;2023-02-28T11:41:18;28.97;;;17.40;;
5833;SDS011;2943;48.012;10.968;2023-02-28T11:43:59;29.00;;;19.10;;
5833;SDS011;2943;48.012;10.968;2023-02-28T11:46:33;27.20;;;17.97;;
5833;SDS011;2943;48.012;10.968;2023-02-28T11:49:10;29.10;;;18.60;;
5833;SDS011;2943;48.012;10.968;2023-02-28T11:51:49;26.80;;;17.03;;
5833;SDS011;2943;48.012;10.968;2023-02-28T11:54:33;25.63;;;16.40;;
5833;SDS011;2943;48.012;10.968;2023-02-28T11:57:17;29.70;;;18.50;;
5833;SDS011;2943;48.012;10.968;2023-02-28T11:59:59;28.23;;;17.90;;
5833;SDS011;2943;48.012;10.968;2023-02-28T12:02:33;27.80;;;18.10;;
5833;SDS011;2943;48.012;10.968;2023-02-28T12:05:20;28.90;;;17.63;;
5833;SDS011;2943;48.012;10.968;2023-02-28T12:07:59;25.80;;;17.03;;
5833;SDS011;2943;48.012;10.968;2023-02-28T12:10:35;28.70;;;18.23;;
5833;SDS011;2943;48.012;10.968;2023-02-28T12:13:12;27.80;;;17.20;;
5833;SDS011;2943;48.012;10.968;2023-02-28T12:18:44;30.80;;;18.57;;
5833;SDS011;2943;48.012;10.968;2023-02-28T12:21:21;28.60;;;18.37;;
5833;SDS011;2943;48.012;10.968;2023-02-28T12:24:00;27.87;;;18.30;;
5833;SDS011;2943;48.012;10.968;2023-02-28T12:26:50;29.43;;;17.97;;
5833;SDS011;2943;48.012;10.968;2023-02-28T12:29:19;25.93;;;17.37;;
5833;SDS011;2943;48.012;10.968;2023-02-28T12:31:51;35.50;;;20.90;;
5833;SDS011;2943;48.012;10.968;2023-02-28T12:34:22;28.73;;;19.33;;
5833;SDS011;2943;48.012;10.968;2023-02-28T12:36:54;27.20;;;17.00;;
5833;SDS011;2943;48.012;10.968;2023-02-28T12:39:25;23.30;;;16.77;;
5833;SDS011;2943;48.012;10.968;2023-02-28T12:41:59;28.37;;;18.77;;
5833;SDS011;2943;48.012;10.968;2023-02-28T12:44:30;26.60;;;17.13;;
5833;SDS011;2943;48.012;10.968;2023-02-28T12:47:00;28.10;;;18.23;;
5833;SDS011;2943;48.012;10.968;2023-02-28T12:49:30;29.97;;;18.90;;
5833;SDS011;2943;48.012;10.968;2023-02-28T12:52:00;27.13;;;17.97;;
5833;SDS011;2943;48.012;10.968;2023-02-28T12:54:29;31.67;;;20.00;;
5833;SDS011;2943;48.012;10.968;2023-02-28T12:57:05;24.07;;;18.27;;
5833;SDS011;2943;48.012;10.968;2023-02-28T12:59:36;26.63;;;17.70;;
5833;SDS011;2943;48.012;10.968;2023-02-28T13:02:15;32.43;;;19.70;;
5833;SDS011;2943;48.012;10.968;2023-02-28T13:04:59;26.20;;;17.70;;
5833;SDS011;2943;48.012;10.968;2023-02-28T13:07:49;25.23;;;17.63;;
5833;SDS011;2943;48.012;10.968;2023-02-28T13:10:37;27.00;;;18.23;;
5833;SDS011;2943;48.012;10.968;2023-02-28T13:13:11;25.10;;;18.03;;
5833;SDS011;2943;48.012;10.968;2023-02-28T13:15:44;31.53;;;19.90;;
5833;SDS011;2943;48.012;10.968;2023-02-28T13:18:28;30.43;;;18.43;;
5833;SDS011;2943;48.012;10.968;2023-02-28T13:20:58;29.23;;;21.17;;
5833;SDS011;2943;48.012;10.968;2023-02-28T13:23:38;29.60;;;18.27;;
5833;SDS011;2943;48.012;10.968;2023-02-28T13:29:31;27.80;;;18.17;;
5833;SDS011;2943;48.012;10.968;2023-02-28T13:38:21;26.57;;;17.50;;
5833;SDS011;2943;48.012;10.968;2023-02-28T13:44:05;26.40;;;18.30;;
5833;SDS011;2943;48.012;10.968;2023-02-28T13:46:36;21.30;;;16.77;;
5833;SDS011;2943;48.012;10.968;2023-02-28T13:49:25;31.03;;;18.60;;
5833;SDS011;2943;48.012;10.968;2023-02-28T13:51:53;30.70;;;19.33;;
5833;SDS011;2943;48.012;10.968;2023-02-28T13:54:34;29.93;;;18.17;;
5833;SDS011;2943;48.012;10.968;2023-02-28T13:57:12;28.10;;;19.10;;
5833;SDS011;2943;48.012;10.968;2023-02-28T13:59:50;35.90;;;19.23;;
5833;SDS011;2943;48.012;10.968;2023-02-28T14:02:38;25.23;;;17.80;;
5833;SDS011;2943;48.012;10.968;2023-02-28T14:05:15;24.70;;;17.93;;
5833;SDS011;2943;48.012;10.968;2023-02-28T14:07:45;24.97;;;17.60;;
5833;SDS011;2943;48.012;10.968;2023-02-28T14:10:22;26.47;;;19.03;;
5833;SDS011;2943;48.012;10.968;2023-02-28T14:13:03;28.17;;;18.60;;
5833;SDS011;2943;48.012;10.968;2023-02-28T14:15:43;27.73;;;19.70;;
5833;SDS011;2943;48.012;10.968;2023-02-28T14:18:22;34.43;;;19.63;;
5833;SDS011;2943;48.012;10.968;2023-02-28T14:20:52;27.37;;;19.37;;
5833;SDS011;2943;48.012;10.968;2023-02-28T14:23:32;27.90;;;18.47;;
5833;SDS011;2943;48.012;10.968;2023-02-28T14:26:06;28.80;;;18.73;;
5833;SDS011;2943;48.012;10.968;2023-02-28T14:28:47;30.00;;;19.43;;
5833;SDS011;2943;48.012;10.968;2023-02-28T14:31:22;28.97;;;18.53;;
5833;SDS011;2943;48.012;10.968;2023-02-28T14:34:05;24.13;;;17.27;;
5833;SDS011;2943;48.012;10.968;2023-02-28T14:36:52;32.23;;;20.47;;
5833;SDS011;2943;48.012;10.968;2023-02-28T14:39:20;29.27;;;19.40;;
5833;SDS011;2943;48.012;10.968;2023-02-28T14:41:48;28.83;;;19.23;;
5833;SDS011;2943;48.012;10.968;2023-02-28T14:44:16;27.67;;;19.90;;
5833;SDS011;2943;48.012;10.968;2023-02-28T14:46:45;33.00;;;19.63;;
5833;SDS011;2943;48.012;10.968;2023-02-28T14:49:17;35.40;;;24.93;;
5833;SDS011;2943;48.012;10.968;2023-02-28T14:51:45;34.77;;;21.13;;
5833;SDS011;2943;48.012;10.968;2023-02-28T14:54:14;31.00;;;18.87;;
5833;SDS011;2943;48.012;10.968;2023-02-28T14:56:42;28.83;;;19.63;;
5833;SDS011;2943;48.012;10.968;2023-02-28T14:59:23;37.77;;;24.40;;
5833;SDS011;2943;48.012;10.968;2023-02-28T15:01:51;35.07;;;19.80;;
5833;SDS011;2943;48.012;10.968;2023-02-28T15:04:34;33.80;;;22.13;;
5833;SDS011;2943;48.012;10.968;2023-02-28T15:07:08;30.37;;;20.90;;
5833;SDS011;2943;48.012;10.968;2023-02-28T15:09:35;31.00;;;20.23;;
5833;SDS011;2943;48.012;10.968;2023-02-28T15:12:02;36.27;;;21.40;;
5833;SDS011;2943;48.012;10.968;2023-02-28T15:14:29;36.97;;;21.83;;
5833;SDS011;2943;48.012;10.968;2023-02-28T15:16:57;27.37;;;18.80;;
5833;SDS011;2943;48.012;10.968;2023-02-28T15:19:28;27.93;;;18.97;;
5833;SDS011;2943;48.012;10.968;2023-02-28T15:21:59;31.60;;;19.70;;
5833;SDS011;2943;48.012;10.968;2023-02-28T15:24:34;37.33;;;20.20;;